powered by Meteolive.it
Dati meteo   Attuali  Passati Ogni 3 ore 7 Giorni 15 Giorni Avvisi Meteo Mappe meteo
Palermo / Punta Raisi, Italy
Alba: 5:16 AM UTC1
Tramonto: 6:53 PM UTC1
 Lat: 38.17N, Lon: 13.08E
ICAO Usato: LICJ
Condizioni Meteo Attuali Aggiornate: 26.04.2018 alle 10:20 LT
Quasi Sereno
Quasi Sereno
Sereno
Quasi Sereno
Temp: 18°C
Umidita': 64%
Direz/Vel. Vento: ENE 13 KTS raffiche
Pressione: 1014 hPa
Punto di rugiada: 11°C
Temperatura percepita: 18°C
Visibilitą: >10 KM (ottima)
Temperatura percepita in
presenza di vento (Wind Chill)
:
17°C
T. max (ultime 24 ore): 18°C
T. min (ultime 24 ore): 15°C


METAR ORIGINALE
LICJ 260620Z 07013KT CAVOK 18/11 Q1014